createdAt,value
2018-08-22T00:00:44.399Z,99.90
2018-08-22T00:03:12.664Z,99.90
2018-08-22T00:05:40.975Z,99.90
2018-08-22T00:08:09.324Z,99.90
2018-08-22T00:10:37.650Z,99.90
2018-08-22T00:13:05.971Z,99.90
2018-08-22T00:15:34.250Z,99.90
2018-08-22T00:18:02.611Z,99.90
2018-08-22T00:20:30.879Z,99.90
2018-08-22T00:22:59.186Z,99.90
2018-08-22T00:25:27.544Z,99.90
2018-08-22T00:27:55.764Z,99.90
2018-08-22T00:30:24.096Z,99.90
2018-08-22T00:32:52.386Z,99.90
2018-08-22T00:35:20.646Z,99.90
2018-08-22T00:37:49.025Z,99.90
2018-08-22T00:40:17.289Z,99.90
2018-08-22T00:42:45.541Z,99.90
2018-08-22T00:45:13.886Z,99.90
2018-08-22T00:47:42.285Z,99.90
2018-08-22T00:50:10.522Z,99.90
2018-08-22T00:52:38.868Z,99.90
2018-08-22T00:55:07.249Z,99.90
2018-08-22T00:57:35.525Z,99.90
2018-08-22T01:00:03.891Z,99.90
2018-08-22T01:02:32.307Z,99.90
2018-08-22T01:05:00.673Z,99.90
2018-08-22T01:07:28.988Z,99.90
2018-08-22T01:09:57.310Z,99.90
2018-08-22T01:12:25.604Z,99.90
2018-08-22T01:14:53.909Z,99.90
2018-08-22T01:17:22.169Z,99.90
2018-08-22T01:19:50.460Z,99.90
2018-08-22T01:22:18.875Z,99.90
2018-08-22T01:24:47.345Z,99.90
2018-08-22T01:27:22.601Z,99.90
2018-08-22T01:29:52.702Z,99.90
2018-08-22T01:32:21.614Z,99.90
2018-08-22T01:34:50.488Z,99.90
2018-08-22T01:37:18.809Z,99.90
2018-08-22T01:39:47.741Z,99.90
2018-08-22T01:42:16.313Z,99.90
2018-08-22T01:44:44.937Z,99.90
2018-08-22T01:47:13.260Z,99.90
2018-08-22T01:49:41.565Z,99.90
2018-08-22T01:52:09.907Z,99.90
2018-08-22T01:54:38.230Z,99.90
2018-08-22T01:57:06.497Z,99.90
2018-08-22T01:59:34.848Z,99.90
2018-08-22T02:02:03.157Z,99.90
2018-08-22T02:04:31.552Z,99.90
2018-08-22T02:06:59.825Z,99.90
2018-08-22T02:09:28.091Z,99.90
2018-08-22T02:11:56.329Z,99.90
2018-08-22T02:14:24.608Z,99.90
2018-08-22T02:16:52.908Z,99.90
2018-08-22T02:19:21.199Z,99.90
2018-08-22T02:21:49.464Z,99.90
2018-08-22T02:24:17.780Z,99.90
2018-08-22T02:26:46.056Z,99.90
2018-08-22T02:29:14.309Z,99.90
2018-08-22T02:31:42.594Z,99.90
2018-08-22T02:34:10.932Z,99.90
2018-08-22T02:36:39.270Z,99.90
2018-08-22T02:39:08.304Z,99.90
2018-08-22T02:41:36.545Z,99.90
2018-08-22T02:44:04.868Z,99.90
2018-08-22T02:46:33.164Z,99.90
2018-08-22T02:49:01.453Z,99.90
2018-08-22T02:51:29.783Z,99.90
2018-08-22T02:53:58.160Z,99.90
2018-08-22T02:56:26.568Z,99.90
2018-08-22T02:58:54.821Z,99.90
2018-08-22T03:01:23.064Z,99.90
2018-08-22T03:03:51.460Z,99.90
2018-08-22T03:06:19.792Z,99.90
2018-08-22T03:08:48.033Z,99.90
2018-08-22T03:11:16.274Z,99.90
2018-08-22T03:13:44.536Z,99.90
2018-08-22T03:16:12.869Z,99.90
2018-08-22T03:18:41.168Z,99.90
2018-08-22T03:21:09.467Z,99.90
2018-08-22T03:23:37.846Z,99.90
2018-08-22T03:26:06.164Z,99.90
2018-08-22T03:28:34.412Z,99.90
2018-08-22T03:31:02.775Z,99.90
2018-08-22T03:33:31.126Z,99.90
2018-08-22T03:35:59.509Z,99.90
2018-08-22T03:38:27.807Z,99.90
2018-08-22T03:40:56.607Z,99.90
2018-08-22T03:43:24.883Z,99.90
2018-08-22T03:45:53.263Z,99.90
2018-08-22T03:48:21.556Z,99.90
2018-08-22T03:50:49.840Z,99.90
2018-08-22T03:53:18.098Z,99.90
2018-08-22T03:55:46.385Z,99.90
2018-08-22T03:58:14.663Z,99.90
2018-08-22T04:00:43.023Z,99.90
2018-08-22T04:03:11.314Z,99.90
2018-08-22T04:05:39.674Z,99.90
2018-08-22T04:08:07.937Z,99.90
2018-08-22T04:10:36.259Z,99.90
2018-08-22T04:13:04.606Z,99.90
2018-08-22T04:15:32.901Z,99.90
2018-08-22T04:18:01.221Z,99.90
2018-08-22T04:20:29.511Z,99.90
2018-08-22T04:22:57.863Z,99.90
2018-08-22T04:25:26.155Z,99.90
2018-08-22T04:27:54.422Z,99.90
2018-08-22T04:30:22.763Z,99.90
2018-08-22T04:32:51.053Z,99.90
2018-08-22T04:35:19.434Z,99.90
2018-08-22T04:37:47.790Z,99.90
2018-08-22T04:40:16.056Z,99.90
2018-08-22T04:42:44.381Z,99.90
2018-08-22T04:45:12.660Z,99.90
2018-08-22T04:47:40.933Z,99.90
2018-08-22T04:50:09.198Z,99.90
2018-08-22T04:52:37.500Z,99.90
2018-08-22T04:55:06.052Z,99.90
2018-08-22T04:57:34.406Z,99.90
2018-08-22T05:00:02.643Z,99.90
2018-08-22T05:02:30.923Z,99.90
2018-08-22T05:04:59.216Z,99.90
2018-08-22T05:07:27.511Z,99.90
2018-08-22T05:09:55.802Z,99.90
2018-08-22T05:12:24.146Z,99.90
2018-08-22T05:14:52.440Z,99.90
2018-08-22T05:17:20.760Z,99.90
2018-08-22T05:19:49.224Z,99.90
2018-08-22T05:22:17.558Z,99.90
2018-08-22T05:24:45.930Z,99.90
2018-08-22T05:27:14.293Z,99.90
2018-08-22T05:29:42.618Z,99.90
2018-08-22T05:32:10.974Z,99.90
2018-08-22T05:34:39.282Z,99.90
2018-08-22T05:37:07.595Z,99.90
2018-08-22T05:39:35.927Z,99.90
2018-08-22T05:42:04.232Z,99.90
2018-08-22T05:44:32.474Z,99.90
2018-08-22T05:47:00.810Z,99.90
2018-08-22T05:49:29.127Z,99.90
2018-08-22T05:51:57.435Z,99.90
2018-08-22T05:54:25.780Z,99.90
2018-08-22T05:56:54.084Z,99.90
2018-08-22T05:59:22.411Z,99.90
2018-08-22T06:01:50.733Z,99.90
2018-08-22T06:04:19.052Z,99.90
2018-08-22T06:06:47.391Z,99.90
2018-08-22T06:09:15.690Z,99.90
2018-08-22T06:11:44.599Z,99.90
2018-08-22T06:14:12.865Z,99.90
2018-08-22T06:16:41.159Z,99.90
2018-08-22T06:19:09.464Z,99.90
2018-08-22T06:21:37.772Z,99.90
2018-08-22T06:24:06.123Z,99.90
2018-08-22T06:26:34.364Z,99.90
2018-08-22T06:29:02.636Z,99.90
2018-08-22T06:31:30.922Z,99.90
2018-08-22T06:33:59.300Z,99.90
2018-08-22T06:36:27.699Z,99.90
2018-08-22T06:38:55.872Z,99.90
2018-08-22T06:41:24.145Z,99.90
2018-08-22T06:43:52.423Z,99.90
2018-08-22T06:46:20.747Z,99.90
2018-08-22T06:48:49.058Z,99.90
2018-08-22T06:51:17.427Z,99.90
2018-08-22T06:53:45.759Z,99.90
2018-08-22T06:56:14.057Z,99.90
2018-08-22T06:58:42.326Z,99.90
2018-08-22T07:01:10.645Z,99.90
2018-08-22T07:03:38.939Z,99.90
2018-08-22T07:06:07.316Z,99.90
2018-08-22T07:08:35.651Z,99.90
2018-08-22T07:11:04.033Z,99.90
2018-08-22T07:13:32.315Z,99.90
2018-08-22T07:16:01.108Z,99.90
2018-08-22T07:18:29.496Z,99.90
2018-08-22T07:20:57.958Z,99.90
2018-08-22T07:23:26.224Z,99.90
2018-08-22T07:25:54.555Z,99.90
2018-08-22T07:28:22.866Z,99.90
2018-08-22T07:30:51.138Z,99.90
2018-08-22T07:33:19.499Z,99.90
2018-08-22T07:35:50.913Z,99.60
2018-08-22T07:38:19.154Z,99.60
2018-08-22T07:40:47.403Z,99.40
2018-08-22T07:43:15.637Z,98.90
2018-08-22T07:45:43.914Z,98.70
2018-08-22T07:48:12.201Z,98.70
2018-08-22T07:50:40.465Z,98.50
2018-08-22T07:53:08.754Z,98.00
2018-08-22T07:55:39.445Z,97.50
2018-08-22T07:58:07.804Z,97.40
2018-08-22T08:00:36.099Z,97.40
2018-08-22T08:03:04.430Z,97.00
2018-08-22T08:05:32.832Z,96.70
2018-08-22T08:08:01.135Z,96.40
2018-08-22T08:10:32.632Z,96.50
2018-08-22T08:13:01.398Z,95.80
2018-08-22T08:15:29.712Z,95.40
2018-08-22T08:17:58.537Z,94.90
2018-08-22T08:20:26.773Z,94.70
2018-08-22T08:22:55.181Z,94.30
2018-08-22T08:25:23.584Z,94.30
2018-08-22T08:27:51.821Z,93.70
2018-08-22T08:30:20.098Z,93.50
2018-08-22T08:32:48.393Z,93.40
2018-08-22T08:35:16.620Z,93.10
2018-08-22T08:37:44.940Z,93.00
2018-08-22T08:40:13.233Z,92.80
2018-08-22T08:42:41.494Z,92.60
2018-08-22T08:45:11.061Z,92.50
2018-08-22T08:47:39.377Z,92.20
2018-08-22T08:50:07.803Z,92.20
2018-08-22T08:52:36.163Z,92.20
2018-08-22T08:55:04.529Z,92.30
2018-08-22T08:57:33.001Z,92.40
2018-08-22T09:00:01.480Z,91.90
2018-08-22T09:02:29.783Z,91.70
2018-08-22T09:04:58.114Z,91.80
2018-08-22T09:07:26.423Z,91.90
2018-08-22T09:09:54.674Z,91.40
2018-08-22T09:12:23.059Z,91.60
2018-08-22T09:14:51.322Z,91.30
2018-08-22T09:17:19.676Z,91.30
2018-08-22T09:19:47.912Z,91.10
2018-08-22T09:22:16.282Z,90.90
2018-08-22T09:24:44.553Z,90.70
2018-08-22T09:27:12.812Z,90.20
2018-08-22T09:29:41.189Z,89.80
2018-08-22T09:32:09.347Z,88.40
2018-08-22T09:34:37.612Z,87.80
2018-08-22T09:37:05.932Z,86.20
2018-08-22T09:39:34.245Z,86.50
2018-08-22T09:42:02.627Z,86.10
2018-08-22T09:44:31.194Z,85.60
2018-08-22T09:46:59.549Z,84.70
2018-08-22T09:49:27.906Z,83.50
2018-08-22T09:51:56.195Z,82.10
2018-08-22T09:54:24.440Z,83.30
2018-08-22T09:56:52.704Z,81.80
2018-08-22T09:59:21.031Z,82.20
2018-08-22T10:01:49.331Z,81.50
2018-08-22T10:04:17.727Z,79.80
2018-08-22T10:06:49.094Z,78.20
2018-08-22T10:09:21.163Z,78.00
2018-08-22T10:11:49.468Z,77.30
2018-08-22T10:14:17.744Z,76.00
2018-08-22T10:16:46.087Z,75.10
2018-08-22T10:19:14.387Z,75.30
2018-08-22T10:21:43.724Z,75.40
2018-08-22T10:24:12.086Z,75.10
2018-08-22T10:26:40.505Z,73.40
2018-08-22T10:29:08.763Z,72.50
2018-08-22T10:31:37.155Z,71.70
2018-08-22T10:34:05.495Z,71.10
2018-08-22T10:37:58.428Z,72.10
2018-08-22T10:40:26.693Z,69.30
2018-08-22T10:42:55.048Z,68.30
2018-08-22T10:45:23.376Z,68.20
2018-08-22T10:47:51.881Z,67.20
2018-08-22T10:50:20.124Z,67.50
2018-08-22T10:52:48.408Z,65.80
2018-08-22T10:55:16.726Z,64.40
2018-08-22T10:57:45.053Z,65.00
2018-08-22T11:00:13.345Z,64.50
2018-08-22T11:02:42.319Z,65.10
2018-08-22T11:05:10.665Z,65.70
2018-08-22T11:07:39.021Z,63.60
2018-08-22T11:10:07.346Z,62.80
2018-08-22T11:12:35.586Z,62.80
2018-08-22T11:15:03.928Z,60.90
2018-08-22T11:17:32.193Z,60.10
2018-08-22T11:20:00.503Z,59.80
2018-08-22T11:22:40.180Z,59.20
2018-08-22T11:25:19.882Z,58.40
2018-08-22T11:27:59.606Z,58.50
2018-08-22T11:30:39.139Z,58.10
2018-08-22T11:33:18.812Z,57.80
2018-08-22T11:35:46.063Z,58.30
2018-08-22T11:38:14.377Z,58.80
2018-08-22T11:40:42.696Z,57.60
2018-08-22T11:43:11.038Z,57.40
2018-08-22T11:45:39.306Z,56.70
2018-08-22T11:48:07.562Z,56.50
2018-08-22T11:50:35.849Z,56.70
2018-08-22T11:53:04.190Z,54.30
2018-08-22T11:55:32.565Z,54.70
2018-08-22T11:58:00.990Z,54.90
2018-08-22T12:00:29.351Z,54.30
2018-08-22T12:02:57.821Z,55.10
2018-08-22T12:05:26.188Z,54.40
2018-08-22T12:07:54.568Z,55.10
2018-08-22T12:10:27.100Z,54.40
2018-08-22T12:12:55.342Z,55.40
2018-08-22T12:15:23.656Z,55.30
2018-08-22T12:17:51.941Z,54.10
2018-08-22T12:20:20.290Z,53.00
2018-08-22T12:22:48.548Z,52.80
2018-08-22T12:25:16.796Z,52.20
2018-08-22T12:27:45.154Z,52.80
2018-08-22T12:30:13.448Z,53.10
2018-08-22T12:32:41.802Z,52.80
2018-08-22T12:35:10.091Z,52.20
2018-08-22T12:37:38.469Z,52.20
2018-08-22T12:40:07.630Z,52.50
2018-08-22T12:42:35.951Z,52.50
2018-08-22T12:45:04.428Z,52.90
2018-08-22T12:47:32.722Z,52.20
2018-08-22T12:50:01.116Z,52.10
2018-08-22T12:52:29.370Z,50.10
2018-08-22T12:54:57.644Z,49.30
2018-08-22T12:57:25.977Z,49.20
2018-08-22T12:59:54.316Z,49.40
2018-08-22T13:02:22.619Z,50.50
2018-08-22T13:04:50.895Z,50.90
2018-08-22T13:07:19.195Z,48.90
2018-08-22T13:09:47.566Z,49.30
2018-08-22T13:12:15.862Z,48.20
2018-08-22T13:14:44.168Z,47.30
2018-08-22T13:17:12.450Z,48.70
2018-08-22T13:19:40.776Z,48.80
2018-08-22T13:22:09.059Z,49.70
2018-08-22T13:24:37.323Z,48.40
2018-08-22T13:27:05.688Z,48.40
2018-08-22T13:29:34.061Z,46.90
2018-08-22T13:32:02.352Z,47.50
2018-08-22T13:34:30.681Z,45.60
2018-08-22T13:36:59.033Z,46.20
2018-08-22T13:39:27.392Z,46.20
2018-08-22T13:41:55.652Z,46.90
2018-08-22T13:44:23.958Z,45.60
2018-08-22T13:46:52.299Z,46.50
2018-08-22T13:49:20.686Z,46.40
2018-08-22T13:51:49.023Z,45.90
2018-08-22T13:54:17.362Z,46.20
2018-08-22T13:56:45.633Z,45.60
2018-08-22T13:59:13.948Z,45.60
2018-08-22T14:01:42.251Z,46.70
2018-08-22T14:04:10.816Z,47.20
2018-08-22T14:06:39.462Z,47.30
2018-08-22T14:09:09.608Z,50.10
2018-08-22T14:11:37.962Z,51.40
2018-08-22T14:14:06.273Z,51.80
2018-08-22T14:16:34.548Z,47.60
2018-08-22T14:19:02.850Z,47.50
2018-08-22T14:21:31.160Z,46.60
2018-08-22T14:23:59.500Z,46.50
2018-08-22T14:26:27.859Z,46.40
2018-08-22T14:28:56.531Z,46.80
2018-08-22T14:31:24.894Z,49.60
2018-08-22T14:33:53.137Z,45.80
2018-08-22T14:36:21.515Z,49.90
2018-08-22T14:38:49.859Z,53.40
2018-08-22T14:41:18.099Z,53.60
2018-08-22T14:43:46.387Z,49.60
2018-08-22T14:46:14.666Z,48.30
2018-08-22T14:48:42.944Z,46.50
2018-08-22T14:51:11.214Z,46.10
2018-08-22T14:53:39.506Z,45.90
2018-08-22T14:56:07.852Z,46.60
2018-08-22T14:58:36.108Z,45.40
2018-08-22T15:01:04.417Z,45.10
2018-08-22T15:03:32.810Z,44.50
2018-08-22T15:06:01.074Z,44.20
2018-08-22T15:08:29.346Z,44.80
2018-08-22T15:10:57.597Z,44.60
2018-08-22T15:13:25.916Z,43.60
2018-08-22T15:15:54.233Z,42.90
2018-08-22T15:18:22.506Z,41.90
2018-08-22T15:20:50.819Z,40.30
2018-08-22T15:23:20.313Z,39.60
2018-08-22T15:25:48.627Z,39.20
2018-08-22T15:28:17.028Z,39.40
2018-08-22T15:30:47.140Z,39.00
2018-08-22T15:33:15.423Z,39.00
2018-08-22T15:35:43.695Z,39.80
2018-08-22T15:38:11.989Z,40.00
2018-08-22T15:40:40.311Z,41.10
2018-08-22T15:43:08.545Z,41.90
2018-08-22T15:45:37.084Z,43.00
2018-08-22T15:48:05.376Z,43.70
2018-08-22T15:50:33.676Z,43.90
2018-08-22T15:53:02.055Z,44.60
2018-08-22T15:55:30.379Z,46.70
2018-08-22T15:58:04.620Z,46.60
2018-08-22T16:00:42.445Z,46.60
2018-08-22T16:03:11.288Z,48.20
2018-08-22T16:05:40.932Z,48.50
2018-08-22T16:08:09.716Z,50.40
2018-08-22T16:10:37.944Z,50.90
2018-08-22T16:13:14.661Z,53.70
2018-08-22T16:15:42.932Z,53.90
2018-08-22T16:18:11.243Z,54.20
2018-08-22T16:20:47.437Z,54.00
2018-08-22T16:23:15.971Z,55.10
2018-08-22T16:25:45.882Z,54.30
2018-08-22T16:28:14.221Z,55.30
2018-08-22T16:30:42.528Z,55.60
2018-08-22T16:33:11.066Z,55.60
2018-08-22T16:35:40.189Z,56.10
2018-08-22T16:38:10.316Z,56.60
2018-08-22T16:40:40.056Z,57.20
2018-08-22T16:43:08.384Z,56.90
2018-08-22T16:45:43.007Z,57.20
2018-08-22T16:48:11.905Z,57.40
2018-08-22T16:50:40.308Z,57.10
2018-08-22T16:53:08.743Z,57.90
2018-08-22T16:55:37.057Z,57.40
2018-08-22T16:58:05.449Z,57.70
2018-08-22T17:00:39.133Z,58.20
2018-08-22T17:03:08.340Z,58.50
2018-08-22T17:05:36.730Z,59.20
2018-08-22T17:08:05.080Z,59.40
2018-08-22T17:11:11.227Z,59.60
2018-08-22T17:13:51.683Z,60.80
2018-08-22T17:16:20.297Z,60.50
2018-08-22T17:18:48.623Z,60.80
2018-08-22T17:21:17.031Z,60.10
2018-08-22T17:23:45.761Z,60.00
2018-08-22T17:26:15.129Z,61.00
2018-08-22T17:28:45.790Z,61.50
2018-08-22T17:31:14.649Z,60.70
2018-08-22T17:33:46.788Z,62.60
2018-08-22T17:36:15.094Z,62.80
2018-08-22T17:38:44.079Z,62.50
2018-08-22T17:41:12.607Z,62.20
2018-08-22T17:43:55.013Z,64.10
2018-08-22T17:46:26.049Z,63.90
2018-08-22T17:48:54.354Z,64.40
2018-08-22T17:51:22.636Z,64.10
2018-08-22T17:53:50.981Z,64.30
2018-08-22T17:56:20.265Z,64.90
2018-08-22T17:58:48.852Z,66.10
2018-08-22T18:01:17.227Z,67.40
2018-08-22T18:03:45.482Z,68.30
2018-08-22T18:06:13.795Z,68.00
2018-08-22T18:08:42.807Z,68.50
2018-08-22T18:11:11.145Z,70.30
2018-08-22T18:13:39.770Z,71.70
2018-08-22T18:16:08.171Z,71.80
2018-08-22T18:18:36.484Z,72.80
2018-08-22T18:21:04.843Z,73.30
2018-08-22T18:23:33.338Z,73.80
2018-08-22T18:26:03.260Z,75.80
2018-08-22T18:28:31.665Z,77.00
2018-08-22T18:31:00.156Z,77.80
2018-08-22T18:33:28.521Z,78.90
2018-08-22T18:35:56.904Z,79.50
2018-08-22T18:38:25.256Z,80.10
2018-08-22T18:41:04.947Z,80.30
2018-08-22T18:43:33.317Z,80.70
2018-08-22T18:46:07.047Z,81.50
2018-08-22T18:48:35.839Z,81.50
2018-08-22T18:51:04.551Z,82.30
2018-08-22T18:53:32.980Z,82.80
2018-08-22T18:56:12.475Z,83.00
2018-08-22T18:58:41.053Z,83.20
2018-08-22T19:01:09.537Z,83.00
2018-08-22T19:03:37.938Z,83.50
2018-08-22T19:06:06.586Z,84.50
2018-08-22T19:08:37.324Z,84.20
2018-08-22T19:11:05.858Z,84.60
2018-08-22T19:13:34.304Z,84.80
2018-08-22T19:16:04.171Z,84.70
2018-08-22T19:18:32.706Z,85.60
2018-08-22T19:21:03.775Z,85.80
2018-08-22T19:23:32.393Z,85.90
2018-08-22T19:26:01.913Z,86.30
2018-08-22T19:28:30.276Z,86.80
2018-08-22T19:30:59.239Z,86.70
2018-08-22T19:33:28.172Z,87.30
2018-08-22T19:35:56.721Z,87.70
2018-08-22T19:38:26.217Z,88.80
2018-08-22T19:40:54.832Z,88.10
2018-08-22T19:43:23.145Z,88.70
2018-08-22T19:45:51.442Z,88.60
2018-08-22T19:48:19.846Z,88.40
2018-08-22T19:50:48.143Z,88.60
2018-08-22T19:53:16.501Z,89.50
2018-08-22T19:55:44.813Z,90.00
2018-08-22T19:58:15.185Z,90.20
2018-08-22T20:00:43.581Z,90.20
2018-08-22T20:03:14.660Z,90.20
2018-08-22T20:05:50.564Z,90.10
2018-08-22T20:08:21.444Z,90.20
2018-08-22T20:10:49.751Z,90.10
2018-08-22T20:13:18.156Z,90.10
2018-08-22T20:15:46.569Z,90.40
2018-08-22T20:18:17.220Z,90.50
2018-08-22T20:20:45.726Z,90.50
2018-08-22T20:23:14.062Z,90.50
2018-08-22T20:25:42.323Z,90.70
2018-08-22T20:28:10.632Z,90.70
2018-08-22T20:30:38.928Z,91.20
2018-08-22T20:33:08.452Z,91.20
2018-08-22T20:35:37.879Z,91.60
2018-08-22T20:38:09.540Z,91.70
2018-08-22T20:40:38.252Z,91.60
2018-08-22T20:43:13.419Z,91.60
2018-08-22T20:45:43.128Z,91.70
2018-08-22T20:48:12.278Z,92.10
2018-08-22T20:50:42.407Z,92.30
2018-08-22T20:53:14.040Z,92.20
2018-08-22T20:55:42.573Z,92.10
2018-08-22T20:58:20.224Z,92.30
2018-08-22T21:00:48.700Z,93.20
2018-08-22T21:03:18.219Z,93.30
2018-08-22T21:05:46.522Z,93.50
2018-08-22T21:08:14.882Z,93.60
2018-08-22T21:10:43.147Z,93.40
2018-08-22T21:13:18.731Z,93.20
2018-08-22T21:15:47.132Z,93.30
2018-08-22T21:18:15.422Z,93.80
2018-08-22T21:20:43.787Z,93.50
2018-08-22T21:23:12.056Z,93.90
2018-08-22T21:25:40.395Z,94.00
2018-08-22T21:28:08.807Z,94.00
2018-08-22T21:30:39.320Z,94.00
2018-08-22T21:33:07.675Z,94.20
2018-08-22T21:35:35.982Z,94.20
2018-08-22T21:38:08.477Z,94.60
2018-08-22T21:40:36.812Z,94.50
2018-08-22T21:43:05.141Z,94.50
2018-08-22T21:45:33.430Z,94.50
2018-08-22T21:48:14.080Z,94.70
2018-08-22T21:50:43.102Z,94.80
2018-08-22T21:53:11.426Z,94.80
2018-08-22T21:55:41.926Z,94.70
2018-08-22T21:58:10.994Z,94.90
2018-08-22T22:00:39.300Z,95.10
2018-08-22T22:03:08.904Z,95.30
2018-08-22T22:05:48.233Z,95.40
2018-08-22T22:08:16.482Z,95.80
2018-08-22T22:10:44.869Z,95.90
2018-08-22T22:13:13.260Z,95.70
2018-08-22T22:15:45.692Z,95.80
2018-08-22T22:18:14.003Z,95.70
2018-08-22T22:20:42.431Z,95.70
2018-08-22T22:23:10.772Z,95.80
2018-08-22T22:25:39.064Z,95.80
2018-08-22T22:28:07.439Z,96.30
2018-08-22T22:30:35.765Z,96.20
2018-08-22T22:33:04.115Z,96.20
2018-08-22T22:35:38.421Z,96.40
2018-08-22T22:38:10.560Z,96.30
2018-08-22T22:40:39.206Z,96.60
2018-08-22T22:43:09.278Z,96.20
2018-08-22T22:45:37.843Z,96.30
2018-08-22T22:48:06.132Z,96.20
2018-08-22T22:50:34.500Z,96.30
2018-08-22T22:53:04.094Z,96.60
2018-08-22T22:55:32.727Z,97.10
2018-08-22T22:58:02.433Z,96.80
2018-08-22T23:00:31.077Z,96.90
2018-08-22T23:03:04.626Z,96.80
2018-08-22T23:05:32.986Z,96.80
2018-08-22T23:08:02.537Z,96.80
2018-08-22T23:10:30.832Z,96.70
2018-08-22T23:12:59.175Z,96.70
2018-08-22T23:15:28.670Z,96.70
2018-08-22T23:17:59.019Z,96.80
2018-08-22T23:20:35.058Z,96.90
2018-08-22T23:23:05.200Z,96.90
2018-08-22T23:25:33.438Z,97.10
2018-08-22T23:28:01.751Z,97.20
2018-08-22T23:30:34.626Z,97.30
2018-08-22T23:33:02.912Z,97.20
2018-08-22T23:35:32.378Z,97.30
2018-08-22T23:38:01.916Z,97.60
2018-08-22T23:40:31.423Z,97.40
2018-08-22T23:42:59.822Z,98.40
2018-08-22T23:45:28.127Z,97.70
2018-08-22T23:47:56.382Z,97.50
2018-08-22T23:50:30.702Z,97.20
2018-08-22T23:52:59.104Z,97.50
2018-08-22T23:55:27.378Z,97.30
2018-08-22T23:57:56.587Z,97.70
